Impacts TAF Board
For situational awareness. Not to be used for flight planning purposes.
IDs:

KAUS - Austin/Bergstrom Int, TX, US

Issued at 1135 UTC 06 Jul 2020
Updated at 1737 UTC 06 Jul 2020
Potential Impact None Slight Moderate High
Time1653Z 06/18Z 06/19Z 06/20Z 06/21Z 06/22Z 06/23Z 07/00Z 07/01Z 07/02Z 07/03Z 07/04Z 07/05Z 07/06Z>>
Type OBS PRVL PRVL PRVL PRVL PRVL PRVL PRVL PRVL PRVL PRVL PRVL PRVL PRVL
VIS 10 >6 >6 >6 >6 >6 >6 >6 >6 >6 >6 >6 >6 >6
CIG 90 120 120 120 120 120 120 120 120 120 120 120 120 120
Cover BKN BKN BKN BKN BKN BKN BKN BKN BKN BKN BKN BKN BKN BKN
FltCat VFR VFR VFR VFR VFR VFR VFR VFR VFR VFR VFR VFR VFR VFR
WX -- -- -- VCSH VCSH VCSH VCSH VCSH VCSH VCSH VCSH VCSH VCSH VCSH
WDir 200 190 190 140 140 140 140 140 140 140 140 140 140 140
WSpd 9 7 7 8 8 8 8 8 8 8 8 8 8 8
WGst -- -- -- -- -- -- -- -- -- -- -- -- -- --
R17/35
XWnd -3 -1 -1 5 5 5 5 5 5 5 5 5 5 5
HWnd 8 7 7 6 6 6 6 6 6 6 6 6 6 6
Raw TAF
KAUS 061135Z 0612/0718 25005KT P6SM VCSH BKN014
  FM061300 19007KT P6SM SCT018 BKN120
  FM062000 14008KT P6SM VCSH SCT060 BKN120
  FM070700 17005KT P6SM OVC015
  FM071600 19010KT P6SM SCT030 BKN120


Raw METAR
KAUS 061653Z 20009KT 10SM SCT033 BKN090 BKN200 32/23 A2994 RMK AO2 SLP126 T03170228
KAUS 061553Z 21007KT 10SM SCT030 SCT044 BKN200 30/23 A2993 RMK AO2 SLP123 T03000228
KAUS 061453Z 19007KT 10SM SCT022 BKN036 BKN200 29/23 A2991 RMK AO2 SLP117 T02890233 53003 $

METAR Board
Radar Display
Forecast Discussion
For situational awareness. Not to be used for flight planning purposes.